createdAt,value
2022-08-04T00:02:46.084Z,97976.47
2022-08-04T00:06:02.693Z,97968.66
2022-08-04T00:09:14.363Z,97971.84
2022-08-04T00:12:31.100Z,97961.34
2022-08-04T00:15:38.187Z,97969.56
2022-08-04T00:18:53.359Z,97972.56
2022-08-04T00:22:07.898Z,97976.41
2022-08-04T00:25:17.470Z,97972.38
2022-08-04T00:28:25.365Z,97972.22
2022-08-04T00:31:56.208Z,97970.50
2022-08-04T00:35:14.875Z,97972.00
2022-08-04T00:38:22.615Z,97966.00
2022-08-04T00:41:56.339Z,97974.09
2022-08-04T00:45:22.752Z,97963.88
2022-08-04T00:48:53.163Z,97967.75
2022-08-04T00:52:31.917Z,97968.06
2022-08-04T00:56:29.455Z,97965.91
2022-08-04T01:00:02.938Z,97972.78
2022-08-04T01:03:20.809Z,97970.31
2022-08-04T01:06:40.499Z,97974.41
2022-08-04T01:10:04.285Z,97973.56
2022-08-04T01:14:01.346Z,97967.13
2022-08-04T01:17:24.253Z,97967.13
2022-08-04T01:20:38.730Z,97973.69
2022-08-04T01:24:07.635Z,97970.78
2022-08-04T01:27:30.807Z,97974.75
2022-08-04T01:30:47.200Z,97966.50
2022-08-04T01:34:03.857Z,97968.34
2022-08-04T01:37:25.254Z,97964.03
2022-08-04T01:40:35.287Z,97958.56
2022-08-04T01:43:54.458Z,97963.69
2022-08-04T01:47:07.580Z,97961.38
2022-08-04T01:50:18.363Z,97960.28
2022-08-04T01:53:34.085Z,97958.78
2022-08-04T01:56:47.429Z,97958.06
2022-08-04T01:59:59.688Z,97959.94
2022-08-04T02:03:16.249Z,97955.56
2022-08-04T02:06:38.025Z,97962.53
2022-08-04T02:10:01.601Z,97962.22
2022-08-04T02:13:26.719Z,97958.47
2022-08-04T02:16:40.422Z,97954.44
2022-08-04T02:20:18.967Z,97958.31
2022-08-04T02:23:33.944Z,97953.91
2022-08-04T02:26:48.601Z,97953.91
2022-08-04T02:30:11.026Z,97951.06
2022-08-04T02:33:30.531Z,97949.47
2022-08-04T02:36:50.519Z,97945.47
2022-08-04T02:40:04.903Z,97943.88
2022-08-04T02:43:14.728Z,97942.72
2022-08-04T02:46:32.651Z,97944.59
2022-08-04T02:49:45.421Z,97944.16
2022-08-04T02:53:03.124Z,97940.53
2022-08-04T02:56:24.523Z,97941.25
2022-08-04T02:59:48.425Z,97938.44
2022-08-04T03:03:09.985Z,97941.44
2022-08-04T03:07:03.574Z,97942.78
2022-08-04T03:10:48.432Z,97936.59
2022-08-04T03:14:44.336Z,97931.06
2022-08-04T03:18:26.458Z,97936.00
2022-08-04T03:22:00.532Z,97938.28
2022-08-04T03:25:35.806Z,97949.47
2022-08-04T03:29:36.500Z,97942.97
2022-08-04T03:33:25.207Z,97939.25
2022-08-04T03:37:04.858Z,97951.13
2022-08-04T03:40:39.852Z,97958.28
2022-08-04T03:44:32.759Z,97965.31
2022-08-04T03:48:20.704Z,97954.41
2022-08-04T03:52:06.188Z,97956.38
2022-08-04T03:55:47.887Z,97952.63
2022-08-04T03:59:25.603Z,97954.56
2022-08-04T04:02:59.815Z,97946.16
2022-08-04T04:06:44.689Z,97947.25
2022-08-04T04:10:32.254Z,97946.97
2022-08-04T04:14:08.509Z,97945.66
2022-08-04T04:17:40.563Z,97944.16
2022-08-04T04:21:01.471Z,97941.34
2022-08-04T04:24:55.969Z,97942.91
2022-08-04T04:28:47.499Z,97940.09
2022-08-04T04:32:10.456Z,97938.16
2022-08-04T04:35:38.227Z,97944.97
2022-08-04T04:39:13.917Z,97949.53
2022-08-04T04:42:53.430Z,97944.88
2022-08-04T04:46:28.247Z,97948.06
2022-08-04T04:53:49.511Z,97959.31
2022-08-04T04:57:53.254Z,97961.56
2022-08-04T05:01:32.513Z,97952.06
2022-08-04T05:05:16.215Z,97969.03
2022-08-04T05:09:18.975Z,97972.75
2022-08-04T05:14:34.998Z,97963.63
2022-08-04T05:21:14.661Z,97961.44
2022-08-04T05:24:24.428Z,97965.53
2022-08-04T05:27:40.461Z,97962.69
2022-08-04T05:30:58.112Z,97963.69
2022-08-04T05:34:13.986Z,97958.41
2022-08-04T05:37:28.383Z,97964.88
2022-08-04T05:40:42.734Z,97970.16
2022-08-04T05:43:51.084Z,97964.91
2022-08-04T05:47:04.958Z,97961.53
2022-08-04T05:50:11.833Z,97964.38
2022-08-04T05:53:25.823Z,97961.84
2022-08-04T05:56:47.423Z,97963.16
2022-08-04T06:00:14.832Z,97966.00
2022-08-04T06:03:43.847Z,97960.72
2022-08-04T06:07:01.440Z,97966.44
2022-08-04T06:10:31.808Z,97968.97
2022-08-04T06:13:58.577Z,97965.22
2022-08-04T06:18:35.586Z,97964.28
2022-08-04T06:21:23.901Z,97962.53
2022-08-04T06:24:34.094Z,97954.53
2022-08-04T06:27:44.455Z,97959.00
2022-08-04T06:30:53.741Z,97964.25
2022-08-04T06:34:00.640Z,97962.50
2022-08-04T06:37:07.401Z,97968.50
2022-08-04T06:40:30.439Z,97966.50
2022-08-04T06:43:43.950Z,97963.91
2022-08-04T06:46:54.794Z,97961.13
2022-08-04T06:51:25.742Z,97963.50
2022-08-04T06:53:31.215Z,97971.38
2022-08-04T06:56:39.603Z,97969.00
2022-08-04T06:59:49.945Z,97965.88
2022-08-04T07:03:00.129Z,97968.28
2022-08-04T07:06:14.718Z,97964.75
2022-08-04T07:09:27.268Z,97968.72
2022-08-04T07:12:36.442Z,97967.91
2022-08-04T07:15:48.380Z,97967.88
2022-08-04T07:18:56.904Z,97963.81
2022-08-04T07:22:05.289Z,97959.81
2022-08-04T07:25:58.895Z,97954.91
2022-08-04T07:28:59.233Z,97952.00
2022-08-04T07:32:07.159Z,97960.47
2022-08-04T07:36:09.461Z,97953.97
2022-08-04T07:39:03.131Z,97954.16
2022-08-04T07:42:35.247Z,97951.88
2022-08-04T07:46:08.409Z,97948.75
2022-08-04T07:49:54.242Z,97945.28
2022-08-04T07:57:01.476Z,97944.28
2022-08-04T08:00:15.899Z,97940.97
2022-08-04T08:03:39.236Z,97942.13
2022-08-04T08:06:58.434Z,97942.25
2022-08-04T08:10:08.631Z,97937.66
2022-08-04T08:17:58.250Z,97941.34
2022-08-04T08:21:11.790Z,97933.84
2022-08-04T08:25:19.702Z,97933.34
2022-08-04T08:32:34.384Z,97929.31
2022-08-04T08:36:04.653Z,97926.09
2022-08-04T08:39:42.688Z,97924.63
2022-08-04T08:44:07.671Z,97923.91
2022-08-04T08:48:05.912Z,97929.69
2022-08-04T08:52:02.506Z,97932.34
2022-08-04T09:04:30.113Z,97925.56
2022-08-04T09:08:17.517Z,97926.75
2022-08-04T09:11:29.777Z,97920.13
2022-08-04T09:14:47.618Z,97925.38
2022-08-04T09:18:00.312Z,97929.84
2022-08-04T09:21:14.904Z,97925.13
2022-08-04T09:24:37.134Z,97920.03
2022-08-04T09:28:09.468Z,97930.16
2022-08-04T09:31:51.701Z,97924.47
2022-08-04T09:35:21.071Z,97930.66
2022-08-04T09:38:41.439Z,97916.84
2022-08-04T09:42:14.567Z,97913.19
2022-08-04T09:45:43.390Z,97910.06
2022-08-04T09:49:00.146Z,97907.75
2022-08-04T09:52:19.123Z,97906.28
2022-08-04T09:55:54.340Z,97909.44
2022-08-04T09:59:14.272Z,97906.94
2022-08-04T10:02:35.146Z,97907.38
2022-08-04T10:05:52.542Z,97911.63
2022-08-04T10:09:12.159Z,97906.72
2022-08-04T10:12:39.414Z,97894.97
2022-08-04T10:16:09.263Z,97894.09
2022-08-04T10:19:52.769Z,97888.59
2022-08-04T10:23:16.118Z,97882.66
2022-08-04T10:26:39.791Z,97882.34
2022-08-04T10:29:55.315Z,97878.44
2022-08-04T10:33:15.603Z,97875.09
2022-08-04T10:36:27.657Z,97870.19
2022-08-04T10:40:09.103Z,97870.13
2022-08-04T10:43:32.864Z,97871.25
2022-08-04T10:46:49.148Z,97865.47
2022-08-04T10:50:07.705Z,97866.41
2022-08-04T10:53:24.435Z,97866.34
2022-08-04T10:57:42.693Z,97863.81
2022-08-04T11:06:27.554Z,97868.22
2022-08-04T11:22:17.806Z,97860.50
2022-08-04T11:26:37.344Z,97860.81
2022-08-04T11:38:58.293Z,97864.41
2022-08-04T11:42:51.611Z,97865.91
2022-08-04T11:46:33.576Z,97869.66
2022-08-04T11:50:15.073Z,97859.97
2022-08-04T11:53:36.797Z,97856.03
2022-08-04T11:56:53.857Z,97851.59
2022-08-04T12:00:08.204Z,97854.59
2022-08-04T12:03:32.924Z,97846.56
2022-08-04T12:07:30.019Z,97854.09
2022-08-04T12:11:19.175Z,97843.47
2022-08-04T12:14:51.388Z,97846.72
2022-08-04T12:18:07.681Z,97843.97
2022-08-04T12:21:21.197Z,97841.56
2022-08-04T12:24:34.669Z,97838.19
2022-08-04T12:27:49.248Z,97838.81
2022-08-04T12:31:18.287Z,97839.16
2022-08-04T12:34:39.140Z,97843.03
2022-08-04T12:38:00.169Z,97839.19
2022-08-04T12:41:06.819Z,97834.34
2022-08-04T12:52:07.669Z,97819.28
2022-08-04T12:56:01.503Z,97821.72
2022-08-04T13:03:02.761Z,97816.91
2022-08-04T13:06:23.483Z,97815.28
2022-08-04T13:09:36.471Z,97818.63
2022-08-04T13:12:43.860Z,97814.25
2022-08-04T13:16:24.307Z,97815.03
2022-08-04T13:19:41.625Z,97809.00
2022-08-04T13:22:56.241Z,97811.00
2022-08-04T13:26:43.881Z,97801.16
2022-08-04T13:33:57.436Z,97789.03
2022-08-04T13:37:02.695Z,97779.56
2022-08-04T13:40:07.404Z,97782.66
2022-08-04T13:44:15.385Z,97777.66
2022-08-04T13:46:50.823Z,97777.47
2022-08-04T13:50:11.214Z,97776.94
2022-08-04T13:53:18.706Z,97765.88
2022-08-04T13:56:30.527Z,97779.75
2022-08-04T13:59:38.709Z,97770.22
2022-08-04T14:02:45.433Z,97772.88
2022-08-04T14:06:07.926Z,97767.09
2022-08-04T14:09:15.297Z,97774.28
2022-08-04T14:12:45.856Z,97770.72
2022-08-04T14:16:01.823Z,97758.41
2022-08-04T14:19:06.720Z,97759.66
2022-08-04T14:22:15.109Z,97757.94
2022-08-04T14:25:18.540Z,97755.47
2022-08-04T14:29:08.421Z,97758.50
2022-08-04T14:32:01.628Z,97755.09
2022-08-04T14:35:12.236Z,97748.41
2022-08-04T14:38:15.272Z,97747.78
2022-08-04T14:41:20.056Z,97753.81
2022-08-04T14:44:22.865Z,97738.78
2022-08-04T14:47:52.991Z,97743.94
2022-08-04T14:50:56.104Z,97741.75
2022-08-04T14:53:58.879Z,97745.31
2022-08-04T14:57:07.077Z,97740.66
2022-08-04T15:00:13.531Z,97733.63
2022-08-04T15:03:21.725Z,97726.81
2022-08-04T15:06:26.990Z,97721.06
2022-08-04T15:09:30.223Z,97724.63
2022-08-04T15:12:32.994Z,97722.84
2022-08-04T15:15:37.595Z,97721.34
2022-08-04T15:18:42.776Z,97726.34
2022-08-04T15:21:52.257Z,97724.91
2022-08-04T15:24:55.999Z,97727.56
2022-08-04T15:28:00.121Z,97727.41
2022-08-04T15:32:01.793Z,97724.16
2022-08-04T15:34:29.757Z,97720.78
2022-08-04T15:37:40.701Z,97729.06
2022-08-04T15:40:51.513Z,97732.97
2022-08-04T15:44:09.438Z,97721.41
2022-08-04T15:47:16.855Z,97722.94
2022-08-04T15:50:28.403Z,97715.94
2022-08-04T15:54:03.160Z,97712.88
2022-08-04T15:57:01.336Z,97711.16
2022-08-04T16:00:11.306Z,97711.66
2022-08-04T16:03:57.826Z,97712.00
2022-08-04T16:07:06.839Z,97716.84
2022-08-04T16:10:38.594Z,97707.31
2022-08-04T16:14:09.127Z,97695.31
2022-08-04T16:17:17.175Z,97687.25
2022-08-04T16:20:20.723Z,97687.41
2022-08-04T16:24:02.062Z,97689.75
2022-08-04T16:27:09.642Z,97692.97
2022-08-04T16:30:14.924Z,97683.63
2022-08-04T16:33:17.862Z,97684.22
2022-08-04T16:36:56.817Z,97678.09
2022-08-04T16:40:36.435Z,97682.03
2022-08-04T16:43:44.960Z,97680.38
2022-08-04T16:47:21.353Z,97681.06
2022-08-04T16:50:36.506Z,97669.63
2022-08-04T16:54:04.722Z,97675.28
2022-08-04T16:57:17.880Z,97676.78
2022-08-04T17:00:34.322Z,97667.69
2022-08-04T17:03:42.134Z,97676.13
2022-08-04T17:06:50.988Z,97671.69
2022-08-04T17:10:01.726Z,97676.09
2022-08-04T17:14:02.848Z,97669.31
2022-08-04T17:17:19.719Z,97673.59
2022-08-04T17:21:00.845Z,97659.84
2022-08-04T17:24:14.142Z,97663.34
2022-08-04T17:28:20.457Z,97654.66
2022-08-04T17:31:12.046Z,97659.81
2022-08-04T17:34:34.458Z,97657.38
2022-08-04T17:37:53.279Z,97658.94
2022-08-04T17:41:19.410Z,97658.59
2022-08-04T17:45:01.863Z,97661.91
2022-08-04T17:48:25.223Z,97653.16
2022-08-04T17:52:04.386Z,97658.91
2022-08-04T17:55:16.334Z,97658.69
2022-08-04T17:58:42.405Z,97664.50
2022-08-04T18:02:05.489Z,97663.38
2022-08-04T18:06:01.846Z,97667.84
2022-08-04T18:09:22.738Z,97665.16
2022-08-04T18:12:30.826Z,97676.69
2022-08-04T18:15:46.311Z,97666.41
2022-08-04T18:19:13.695Z,97668.78
2022-08-04T18:22:28.328Z,97671.13
2022-08-04T18:29:05.957Z,97672.97
2022-08-04T18:32:20.184Z,97680.31
2022-08-04T18:36:31.383Z,97681.44
2022-08-04T18:39:13.148Z,97690.00
2022-08-04T18:42:23.123Z,97686.28
2022-08-04T18:45:33.862Z,97684.88
2022-08-04T18:48:52.400Z,97692.53
2022-08-04T18:52:02.058Z,97699.09
2022-08-04T18:55:56.489Z,97694.16
2022-08-04T18:58:48.820Z,97691.25
2022-08-04T19:02:12.886Z,97698.88
2022-08-04T19:05:23.950Z,97701.44
2022-08-04T19:08:47.714Z,97698.75
2022-08-04T19:11:58.815Z,97711.91
2022-08-04T19:15:08.808Z,97713.25
2022-08-04T19:18:19.912Z,97723.63
2022-08-04T19:22:01.461Z,97715.44
2022-08-04T19:25:09.897Z,97723.44
2022-08-04T19:28:20.395Z,97719.66
2022-08-04T19:31:40.079Z,97724.47
2022-08-04T19:34:57.863Z,97730.94
2022-08-04T19:38:09.654Z,97741.66
2022-08-04T19:41:27.201Z,97740.53
2022-08-04T19:44:43.752Z,97743.00
2022-08-04T19:48:17.146Z,97732.44
2022-08-04T19:51:30.354Z,97739.22
2022-08-04T19:54:47.504Z,97743.59
2022-08-04T19:57:57.115Z,97743.66
2022-08-04T20:01:31.323Z,97744.88
2022-08-04T20:04:40.814Z,97747.69
2022-08-04T20:08:05.720Z,97754.06
2022-08-04T20:11:12.855Z,97752.16
2022-08-04T20:21:29.606Z,97759.75
2022-08-04T20:24:53.355Z,97755.84
2022-08-04T20:28:25.617Z,97749.91
2022-08-04T20:31:43.365Z,97758.25
2022-08-04T20:34:58.432Z,97748.38
2022-08-04T20:38:04.843Z,97759.44
2022-08-04T20:41:12.923Z,97754.34
2022-08-04T20:44:22.276Z,97757.88
2022-08-04T20:47:35.563Z,97760.25
2022-08-04T20:51:03.762Z,97759.09
2022-08-04T20:54:16.255Z,97766.22
2022-08-04T20:57:47.432Z,97763.06
2022-08-04T21:00:57.358Z,97765.84
2022-08-04T21:04:28.209Z,97755.22
2022-08-04T21:07:43.704Z,97754.06
2022-08-04T21:10:50.836Z,97760.34
2022-08-04T21:14:01.774Z,97759.97
2022-08-04T21:17:11.694Z,97755.22
2022-08-04T21:20:27.703Z,97758.00
2022-08-04T21:23:37.477Z,97765.09
2022-08-04T21:26:54.127Z,97761.94
2022-08-04T21:30:03.928Z,97763.94
2022-08-04T21:33:20.196Z,97757.63
2022-08-04T21:36:31.919Z,97758.03
2022-08-04T21:39:59.321Z,97752.09
2022-08-04T21:43:07.673Z,97753.66
2022-08-04T21:46:16.363Z,97759.56
2022-08-04T21:49:25.974Z,97749.31
2022-08-04T21:52:47.954Z,97757.97
2022-08-04T21:56:06.133Z,97757.97
2022-08-04T21:59:15.138Z,97754.03
2022-08-04T22:02:24.243Z,97743.00
2022-08-04T22:05:39.238Z,97750.06
2022-08-04T22:08:49.574Z,97749.25
2022-08-04T22:12:03.341Z,97748.09
2022-08-04T22:15:23.261Z,97757.91
2022-08-04T22:18:45.499Z,97752.72
2022-08-04T22:21:54.987Z,97756.28
2022-08-04T22:25:13.374Z,97757.84
2022-08-04T22:28:28.569Z,97751.16
2022-08-04T22:31:55.746Z,97759.41
2022-08-04T22:35:31.022Z,97749.56
2022-08-04T22:38:49.762Z,97738.50
2022-08-04T22:42:03.599Z,97746.72
2022-08-04T22:45:10.581Z,97745.53
2022-08-04T22:48:14.395Z,97747.13
2022-08-04T22:51:17.751Z,97751.03
2022-08-04T22:54:20.485Z,97752.97
2022-08-04T22:57:24.972Z,97745.50
2022-08-04T23:00:53.038Z,97742.38
2022-08-04T23:03:57.201Z,97743.09
2022-08-04T23:07:00.468Z,97746.56
2022-08-04T23:10:03.170Z,97742.66
2022-08-04T23:13:07.888Z,97748.91
2022-08-04T23:16:14.043Z,97747.69
2022-08-04T23:19:17.315Z,97738.66
2022-08-04T23:22:42.075Z,97747.66
2022-08-04T23:26:07.717Z,97744.09
2022-08-04T23:29:07.825Z,97752.34
2022-08-04T23:32:13.576Z,97753.47
2022-08-04T23:35:16.492Z,97747.97
2022-08-04T23:38:30.463Z,97742.84
2022-08-04T23:41:53.889Z,97742.44
2022-08-04T23:44:57.783Z,97736.53
2022-08-04T23:48:18.480Z,97740.81
2022-08-04T23:51:22.369Z,97735.19
2022-08-04T23:54:26.131Z,97737.13
2022-08-04T23:57:31.644Z,97734.75
